createdAt,value
2023-03-17T00:00:58.469Z,0.86
2023-03-17T00:04:01.523Z,0.85
2023-03-17T00:07:05.390Z,0.92
2023-03-17T00:10:14.512Z,0.68
2023-03-17T00:13:17.536Z,0.70
2023-03-17T00:16:32.544Z,0.63
2023-03-17T00:19:36.313Z,0.63
2023-03-17T00:22:39.807Z,0.66
2023-03-17T00:25:43.259Z,0.86
2023-03-17T00:28:46.220Z,0.75
2023-03-17T00:31:49.323Z,0.61
2023-03-17T00:34:52.098Z,0.42
2023-03-17T00:37:58.293Z,0.30
2023-03-17T00:41:01.365Z,0.37
2023-03-17T00:44:04.801Z,0.46
2023-03-17T00:47:10.185Z,0.33
2023-03-17T00:50:18.827Z,-0.03
2023-03-17T00:53:22.069Z,-0.29
2023-03-17T00:56:24.712Z,-0.06
2023-03-17T00:59:38.003Z,-0.18
2023-03-17T01:02:40.512Z,0.17
2023-03-17T01:05:43.434Z,0.05
2023-03-17T01:08:45.715Z,0.29
2023-03-17T01:11:49.176Z,0.44
2023-03-17T01:14:51.645Z,0.61
2023-03-17T01:17:54.759Z,0.31
2023-03-17T01:20:56.890Z,0.29
2023-03-17T01:24:00.523Z,0.30
2023-03-17T01:27:04.966Z,0.22
2023-03-17T01:30:21.559Z,0.29
2023-03-17T01:33:23.904Z,-0.19
2023-03-17T01:36:26.513Z,-0.49
2023-03-17T01:39:28.750Z,-0.48
2023-03-17T01:42:32.164Z,-0.41
2023-03-17T01:46:12.302Z,-0.89
2023-03-17T01:49:37.419Z,-0.79
2023-03-17T01:52:40.447Z,-0.88
2023-03-17T01:55:45.521Z,-1.07
2023-03-17T01:58:51.959Z,-0.68
2023-03-17T02:02:01.429Z,-0.61
2023-03-17T02:05:07.402Z,-0.79
2023-03-17T02:08:15.343Z,-0.65
2023-03-17T02:11:19.194Z,-0.77
2023-03-17T02:14:21.531Z,-0.79
2023-03-17T02:17:26.378Z,-0.68
2023-03-17T02:20:29.130Z,-0.61
2023-03-17T02:23:31.803Z,-0.57
2023-03-17T02:26:35.467Z,-0.27
2023-03-17T02:29:38.012Z,-0.21
2023-03-17T02:32:40.448Z,-0.43
2023-03-17T02:35:43.165Z,-0.61
2023-03-17T02:38:45.331Z,-0.42
2023-03-17T02:41:47.857Z,-0.28
2023-03-17T02:44:50.619Z,-0.61
2023-03-17T02:47:55.283Z,-0.59
2023-03-17T02:50:57.712Z,-0.55
2023-03-17T02:54:03.570Z,-0.49
2023-03-17T02:57:06.456Z,-0.69
2023-03-17T03:00:10.481Z,-0.65
2023-03-17T03:03:12.968Z,-0.76
2023-03-17T03:06:15.431Z,-0.70
2023-03-17T03:09:17.973Z,-0.83
2023-03-17T03:12:20.584Z,-0.99
2023-03-17T03:15:23.149Z,-0.74
2023-03-17T03:18:26.127Z,-0.51
2023-03-17T03:21:29.050Z,-0.52
2023-03-17T03:24:32.217Z,-0.55
2023-03-17T03:27:34.902Z,-0.79
2023-03-17T03:30:37.924Z,-0.80
2023-03-17T03:33:41.576Z,-0.86
2023-03-17T03:36:44.350Z,-0.48
2023-03-17T03:39:47.669Z,-0.62
2023-03-17T03:42:50.520Z,-0.67
2023-03-17T03:45:54.561Z,-0.57
2023-03-17T03:48:57.052Z,-0.51
2023-03-17T03:51:59.211Z,-0.51
2023-03-17T03:55:02.036Z,-0.41
2023-03-17T03:58:04.318Z,-0.50
2023-03-17T04:01:09.495Z,-0.54
2023-03-17T04:04:11.990Z,-0.38
2023-03-17T04:07:14.450Z,-0.74
2023-03-17T04:10:17.477Z,-0.59
2023-03-17T04:13:19.623Z,-1.00
2023-03-17T04:16:22.143Z,-0.99
2023-03-17T04:19:24.357Z,-1.00
2023-03-17T04:22:27.132Z,-0.80
2023-03-17T04:25:29.373Z,-0.84
2023-03-17T04:28:31.939Z,-1.10
2023-03-17T04:31:37.556Z,-0.97
2023-03-17T04:34:41.310Z,-0.91
2023-03-17T04:37:43.579Z,-0.73
2023-03-17T04:40:46.263Z,-0.89
2023-03-17T04:43:48.526Z,-1.19
2023-03-17T04:46:51.156Z,-0.89
2023-03-17T04:49:53.347Z,-1.09
2023-03-17T04:52:55.857Z,-1.15
2023-03-17T04:55:58.364Z,-1.21
2023-03-17T04:59:00.935Z,-1.24
2023-03-17T05:02:03.166Z,-0.91
2023-03-17T05:05:05.901Z,-0.87
2023-03-17T05:08:08.212Z,-0.84
2023-03-17T05:11:11.706Z,-0.57
2023-03-17T05:14:13.883Z,-0.57
2023-03-17T05:17:16.409Z,-0.68
2023-03-17T05:20:18.701Z,-0.51
2023-03-17T05:23:22.995Z,-0.26
2023-03-17T05:26:25.328Z,0.26
2023-03-17T05:29:28.227Z,0.36
2023-03-17T05:32:30.443Z,0.65
2023-03-17T05:35:33.009Z,1.18
2023-03-17T05:38:35.336Z,1.57
2023-03-17T05:41:38.063Z,2.17
2023-03-17T05:44:40.275Z,3.05
2023-03-17T05:47:43.706Z,4.55
2023-03-17T05:50:46.034Z,4.97
2023-03-17T05:53:48.704Z,5.67
2023-03-17T05:56:51.025Z,5.76
2023-03-17T05:59:54.434Z,5.58
2023-03-17T06:02:56.756Z,5.65
2023-03-17T06:05:59.387Z,5.51
2023-03-17T06:09:01.671Z,5.78
2023-03-17T06:12:04.790Z,6.26
2023-03-17T06:15:09.698Z,5.66
2023-03-17T06:18:12.463Z,5.77
2023-03-17T06:21:15.125Z,5.77
2023-03-17T06:24:17.995Z,5.86
2023-03-17T06:27:20.397Z,6.43
2023-03-17T06:30:23.213Z,6.89
2023-03-17T06:33:26.633Z,7.13
2023-03-17T06:36:30.150Z,7.51
2023-03-17T06:39:32.591Z,7.58
2023-03-17T06:42:35.519Z,7.96
2023-03-17T06:45:37.860Z,8.48
2023-03-17T06:48:40.444Z,9.13
2023-03-17T06:51:42.771Z,10.21
2023-03-17T06:54:45.468Z,10.40
2023-03-17T06:57:49.817Z,11.86
2023-03-17T07:00:54.130Z,12.86
2023-03-17T07:03:56.617Z,13.91
2023-03-17T07:06:59.139Z,15.03
2023-03-17T07:10:02.056Z,16.37
2023-03-17T07:13:07.744Z,16.39
2023-03-17T07:16:12.190Z,16.31
2023-03-17T07:19:14.769Z,16.55
2023-03-17T07:22:16.972Z,15.95
2023-03-17T07:25:19.883Z,15.76
2023-03-17T07:28:22.070Z,15.47
2023-03-17T07:31:25.378Z,14.73
2023-03-17T07:34:28.232Z,13.29
2023-03-17T07:37:32.528Z,12.09
2023-03-17T07:40:37.962Z,11.10
2023-03-17T07:43:41.154Z,10.59
2023-03-17T07:46:43.305Z,9.98
2023-03-17T07:49:46.066Z,9.53
2023-03-17T07:52:48.314Z,9.38
2023-03-17T07:55:51.277Z,9.03
2023-03-17T07:58:54.271Z,9.11
2023-03-17T08:01:58.151Z,8.77
2023-03-17T08:05:02.391Z,8.91
2023-03-17T08:08:06.628Z,8.63
2023-03-17T08:11:09.940Z,8.75
2023-03-17T08:14:13.179Z,8.99
2023-03-17T08:17:17.340Z,8.70
2023-03-17T08:20:19.655Z,8.82
2023-03-17T08:23:22.473Z,8.85
2023-03-17T08:26:25.493Z,8.78
2023-03-17T08:29:29.060Z,8.66
2023-03-17T08:32:32.077Z,8.81
2023-03-17T08:35:37.312Z,8.93
2023-03-17T08:38:42.309Z,8.91
2023-03-17T08:41:45.020Z,9.00
2023-03-17T08:44:48.324Z,9.01
2023-03-17T08:47:50.821Z,9.00
2023-03-17T08:50:53.305Z,9.20
2023-03-17T08:53:56.230Z,9.25
2023-03-17T08:56:58.770Z,9.27
2023-03-17T09:00:01.954Z,9.00
2023-03-17T09:03:05.714Z,9.06
2023-03-17T09:06:12.223Z,8.98
2023-03-17T09:09:14.939Z,9.10
2023-03-17T09:12:17.670Z,9.29
2023-03-17T09:15:19.926Z,9.36
2023-03-17T09:18:23.031Z,9.43
2023-03-17T09:21:25.349Z,9.35
2023-03-17T09:24:28.169Z,8.89
2023-03-17T09:27:30.630Z,8.91
2023-03-17T09:30:33.677Z,8.92
2023-03-17T09:33:36.003Z,9.11
2023-03-17T09:36:38.746Z,9.36
2023-03-17T09:39:41.691Z,9.34
2023-03-17T09:42:58.044Z,9.04
2023-03-17T09:46:17.769Z,9.12
2023-03-17T09:49:23.025Z,9.32
2023-03-17T09:52:30.270Z,9.62
2023-03-17T09:55:35.749Z,9.93
2023-03-17T09:58:42.409Z,10.16
2023-03-17T10:01:45.736Z,10.18
2023-03-17T10:04:48.927Z,9.94
2023-03-17T10:08:31.209Z,10.00
2023-03-17T10:11:48.797Z,10.05
2023-03-17T10:15:13.577Z,10.38
2023-03-17T10:18:18.205Z,9.98
2023-03-17T10:21:33.828Z,9.92
2023-03-17T10:24:43.333Z,10.07
2023-03-17T10:27:56.324Z,9.85
2023-03-17T10:31:22.817Z,9.97
2023-03-17T10:34:32.621Z,10.22
2023-03-17T10:37:36.640Z,10.12
2023-03-17T10:40:39.688Z,10.13
2023-03-17T10:43:45.895Z,10.11
2023-03-17T10:46:57.124Z,10.24
2023-03-17T10:50:17.711Z,10.15
2023-03-17T10:53:29.386Z,10.31
2023-03-17T10:56:39.619Z,10.43
2023-03-17T10:59:44.624Z,10.64
2023-03-17T11:02:57.021Z,10.78
2023-03-17T11:06:05.772Z,10.71
2023-03-17T11:09:11.032Z,10.74
2023-03-17T11:12:50.254Z,10.92
2023-03-17T11:15:58.185Z,10.88
2023-03-17T11:19:02.512Z,10.50
2023-03-17T11:22:17.856Z,10.61
2023-03-17T11:25:20.978Z,10.53
2023-03-17T11:28:33.050Z,10.51
2023-03-17T11:31:52.004Z,10.35
2023-03-17T11:35:38.373Z,10.35
2023-03-17T11:38:57.670Z,10.39
2023-03-17T11:53:05.747Z,10.88
2023-03-17T11:56:19.827Z,10.72
2023-03-17T11:59:34.353Z,10.84
2023-03-17T12:02:54.769Z,10.85
2023-03-17T12:06:02.083Z,10.94
2023-03-17T12:09:30.006Z,10.98
2023-03-17T12:12:39.251Z,11.03
2023-03-17T12:15:43.853Z,11.23
2023-03-17T12:19:21.930Z,11.27
2023-03-17T12:22:34.405Z,11.09
2023-03-17T12:26:12.363Z,11.03
2023-03-17T12:29:30.616Z,10.65
2023-03-17T12:32:38.110Z,10.52
2023-03-17T12:35:40.654Z,10.51
2023-03-17T12:39:01.715Z,10.67
2023-03-17T12:42:13.485Z,10.64
2023-03-17T12:45:27.965Z,10.76
2023-03-17T12:48:38.721Z,10.95
2023-03-17T12:52:06.707Z,10.93
2023-03-17T12:55:15.624Z,10.61
2023-03-17T12:58:41.075Z,10.72
2023-03-17T13:01:46.503Z,10.61
2023-03-17T13:04:57.779Z,10.97
2023-03-17T13:08:02.337Z,11.00
2023-03-17T13:11:29.426Z,11.04
2023-03-17T13:14:41.089Z,11.24
2023-03-17T13:17:43.778Z,11.23
2023-03-17T13:21:11.234Z,11.05
2023-03-17T13:24:18.781Z,11.00
2023-03-17T13:27:30.044Z,11.03
2023-03-17T13:30:36.459Z,11.18
2023-03-17T13:33:56.723Z,11.34
2023-03-17T13:37:22.332Z,11.24
2023-03-17T13:40:36.243Z,11.32
2023-03-17T13:43:57.737Z,11.22
2023-03-17T13:47:17.328Z,11.19
2023-03-17T13:50:32.646Z,11.16
2023-03-17T13:53:57.583Z,10.92
2023-03-17T13:57:22.356Z,11.09
2023-03-17T14:00:27.824Z,11.08
2023-03-17T14:03:35.199Z,10.98
2023-03-17T14:06:38.265Z,10.88
2023-03-17T14:09:42.344Z,10.62
2023-03-17T14:12:52.355Z,10.69
2023-03-17T14:16:27.589Z,10.69
2023-03-17T14:19:31.056Z,10.61
2023-03-17T14:22:45.499Z,10.71
2023-03-17T14:25:50.543Z,10.86
2023-03-17T14:28:53.947Z,10.75
2023-03-17T14:32:16.471Z,10.98
2023-03-17T14:35:19.894Z,10.88
2023-03-17T14:38:50.005Z,10.91
2023-03-17T14:42:00.797Z,10.99
2023-03-17T14:45:07.181Z,10.76
2023-03-17T14:48:14.221Z,10.84
2023-03-17T14:51:39.175Z,10.98
2023-03-17T14:54:42.003Z,10.85
2023-03-17T14:57:49.386Z,10.60
2023-03-17T15:00:57.144Z,10.93
2023-03-17T15:04:18.693Z,10.91
2023-03-17T15:07:39.971Z,10.90
2023-03-17T15:10:43.545Z,11.04
2023-03-17T15:13:47.260Z,10.92
2023-03-17T15:16:52.553Z,10.90
2023-03-17T15:20:00.370Z,10.96
2023-03-17T15:23:25.070Z,10.95
2023-03-17T15:26:34.069Z,10.88
2023-03-17T15:29:36.344Z,10.92
2023-03-17T15:32:39.700Z,10.82
2023-03-17T15:35:41.969Z,10.62
2023-03-17T15:38:44.598Z,10.74
2023-03-17T15:41:46.809Z,10.59
2023-03-17T15:44:49.444Z,10.51
2023-03-17T15:47:51.924Z,10.28
2023-03-17T15:50:56.652Z,10.24
2023-03-17T15:53:59.104Z,10.14
2023-03-17T15:57:01.533Z,10.19
2023-03-17T16:00:04.385Z,10.21
2023-03-17T16:03:33.366Z,10.00
2023-03-17T16:06:36.542Z,9.93
2023-03-17T16:09:38.957Z,9.94
2023-03-17T16:12:41.752Z,9.74
2023-03-17T16:15:55.809Z,9.81
2023-03-17T16:18:58.538Z,9.63
2023-03-17T16:22:00.826Z,9.74
2023-03-17T16:25:06.756Z,9.60
2023-03-17T16:28:23.631Z,9.58
2023-03-17T16:31:30.264Z,9.50
2023-03-17T16:34:32.743Z,9.37
2023-03-17T16:37:37.093Z,9.26
2023-03-17T16:40:42.957Z,9.16
2023-03-17T16:43:50.922Z,9.05
2023-03-17T16:46:53.209Z,8.96
2023-03-17T16:49:55.813Z,8.85
2023-03-17T16:52:58.741Z,8.78
2023-03-17T16:56:01.267Z,8.57
2023-03-17T16:59:04.274Z,8.49
2023-03-17T17:02:15.369Z,8.33
2023-03-17T17:05:21.015Z,8.23
2023-03-17T17:08:23.872Z,8.19
2023-03-17T17:11:26.078Z,8.11
2023-03-17T17:14:28.604Z,7.99
2023-03-17T17:17:30.895Z,7.95
2023-03-17T17:20:37.610Z,7.82
2023-03-17T17:23:39.876Z,7.72
2023-03-17T17:26:42.532Z,7.62
2023-03-17T17:29:46.066Z,7.51
2023-03-17T17:32:48.644Z,7.41
2023-03-17T17:35:51.853Z,7.35
2023-03-17T17:38:54.549Z,7.23
2023-03-17T17:41:56.734Z,7.11
2023-03-17T17:44:59.785Z,7.10
2023-03-17T17:48:02.293Z,7.03
2023-03-17T17:51:04.946Z,7.00
2023-03-17T17:54:07.146Z,6.81
2023-03-17T17:57:11.692Z,6.77
2023-03-17T18:00:17.139Z,6.71
2023-03-17T18:03:24.442Z,6.60
2023-03-17T18:06:28.919Z,6.66
2023-03-17T18:09:32.050Z,6.68
2023-03-17T18:12:34.558Z,6.61
2023-03-17T18:15:37.122Z,6.54
2023-03-17T18:18:42.375Z,6.51
2023-03-17T18:21:46.152Z,6.51
2023-03-17T18:24:49.762Z,6.58
2023-03-17T18:27:52.595Z,6.58
2023-03-17T18:30:56.977Z,6.66
2023-03-17T18:34:06.720Z,6.62
2023-03-17T18:37:11.440Z,6.68
2023-03-17T18:40:18.620Z,6.71
2023-03-17T18:43:22.029Z,6.70
2023-03-17T18:46:24.748Z,6.62
2023-03-17T18:49:28.246Z,6.57
2023-03-17T18:52:33.105Z,6.57
2023-03-17T18:55:35.335Z,6.51
2023-03-17T18:58:38.106Z,6.43
2023-03-17T19:01:40.585Z,6.36
2023-03-17T19:04:46.101Z,6.36
2023-03-17T19:07:48.501Z,6.32
2023-03-17T19:10:51.023Z,6.31
2023-03-17T19:13:53.339Z,6.36
2023-03-17T19:16:56.099Z,6.37
2023-03-17T19:19:58.511Z,6.39
2023-03-17T19:23:01.304Z,6.30
2023-03-17T19:26:04.860Z,6.22
2023-03-17T19:29:09.766Z,6.13
2023-03-17T19:32:12.064Z,6.03
2023-03-17T19:35:14.711Z,6.01
2023-03-17T19:38:17.046Z,5.95
2023-03-17T19:41:19.599Z,5.87
2023-03-17T19:44:23.199Z,5.85
2023-03-17T19:47:25.750Z,5.79
2023-03-17T19:50:28.209Z,5.71
2023-03-17T19:53:31.341Z,5.55
2023-03-17T19:56:34.078Z,5.52
2023-03-17T19:59:36.589Z,5.50
2023-03-17T20:02:39.084Z,5.51
2023-03-17T20:05:41.973Z,5.57
2023-03-17T20:08:44.442Z,5.49
2023-03-17T20:11:52.376Z,5.51
2023-03-17T20:14:55.907Z,5.40
2023-03-17T20:17:58.389Z,5.23
2023-03-17T20:21:05.219Z,5.20
2023-03-17T20:24:09.841Z,5.18
2023-03-17T20:27:15.380Z,5.07
2023-03-17T20:30:18.051Z,5.07
2023-03-17T20:33:20.380Z,5.10
2023-03-17T20:36:23.747Z,5.06
2023-03-17T20:39:26.317Z,5.04
2023-03-17T20:42:28.903Z,4.99
2023-03-17T20:45:31.677Z,5.00
2023-03-17T20:48:35.838Z,5.01
2023-03-17T20:51:39.448Z,4.99
2023-03-17T20:54:42.239Z,4.89
2023-03-17T20:57:49.305Z,4.77
2023-03-17T21:00:53.308Z,4.78
2023-03-17T21:03:55.640Z,4.79
2023-03-17T21:06:58.280Z,4.77
2023-03-17T21:10:02.042Z,4.63
2023-03-17T21:13:04.572Z,4.69
2023-03-17T21:16:07.385Z,4.61
2023-03-17T21:19:13.711Z,4.50
2023-03-17T21:22:16.102Z,4.51
2023-03-17T21:25:19.113Z,4.47
2023-03-17T21:28:22.757Z,4.50
2023-03-17T21:31:25.345Z,4.45
2023-03-17T21:34:31.755Z,4.28
2023-03-17T21:37:35.021Z,4.27
2023-03-17T21:40:39.481Z,4.20
2023-03-17T21:43:42.184Z,4.27
2023-03-17T21:46:46.223Z,4.26
2023-03-17T21:49:48.791Z,4.31
2023-03-17T21:52:51.031Z,4.41
2023-03-17T21:55:53.832Z,4.36
2023-03-17T21:58:57.449Z,4.33
2023-03-17T22:02:00.746Z,4.25
2023-03-17T22:05:04.651Z,4.23
2023-03-17T22:08:07.085Z,4.27
2023-03-17T22:11:11.535Z,4.26
2023-03-17T22:14:17.368Z,4.27
2023-03-17T22:17:20.098Z,4.12
2023-03-17T22:20:22.409Z,4.04
2023-03-17T22:23:26.283Z,4.08
2023-03-17T22:26:28.781Z,4.18
2023-03-17T22:29:32.360Z,4.19
2023-03-17T22:32:34.735Z,4.11
2023-03-17T22:35:38.185Z,4.10
2023-03-17T22:38:40.597Z,4.08
2023-03-17T22:41:43.816Z,4.16
2023-03-17T22:44:46.274Z,4.01
2023-03-17T22:47:50.863Z,3.96
2023-03-17T22:50:53.118Z,3.95
2023-03-17T22:53:55.826Z,4.01
2023-03-17T22:56:58.056Z,4.09
2023-03-17T23:00:00.961Z,4.10
2023-03-17T23:03:03.419Z,4.02
2023-03-17T23:06:07.630Z,4.02
2023-03-17T23:09:10.168Z,4.08
2023-03-17T23:12:12.978Z,4.03
2023-03-17T23:15:15.929Z,4.02
2023-03-17T23:18:18.821Z,3.81
2023-03-17T23:21:26.547Z,3.83
2023-03-17T23:24:29.222Z,3.71
2023-03-17T23:27:31.590Z,3.45
2023-03-17T23:30:35.751Z,3.48
2023-03-17T23:33:38.805Z,3.37
2023-03-17T23:36:42.274Z,3.33
2023-03-17T23:39:44.888Z,3.30
2023-03-17T23:42:49.111Z,3.47
2023-03-17T23:45:55.772Z,3.48
2023-03-17T23:48:58.494Z,3.59
2023-03-17T23:52:00.809Z,3.48
2023-03-17T23:55:05.892Z,3.45
2023-03-17T23:58:08.134Z,3.43
